Site contains unofficial IBTrACS data. Visit the IBTrACS Website to access archived data.

1899 NOT_NAMED (1899345S10068)


IBTrACS version v04r00. Visit IBTrACS website for data access.
Please direct all questions to the IBTrACS Q and A forum

Storm track - Intensity - Wind Radii - Intensity Data - Source Data - All data

Summary Information

Storm ID 1899345S10068
Start Dec 10 18Z
Landfall Dec 20 15Z
End Dec 24 06Z
ATCF IDs
Track status Best track data.

Storm track plot

Map of storm track

Intensity plots

No Intensity information for this storm


Radial wind information

No radial wind information for this storm


Position and Intensity Table

BASIN ISO_TIME_________ NATURE LAT LON
degrees north degrees east
SI 1899-12-10 18:00:00 NR -9.80 67.60
SI 21:00:00 NR -9.85 67.27
SI 1899-12-11 00:00:00 NR -9.90 66.95
SI 03:00:00 NR -9.95 66.62
SI 06:00:00 NR -10.00 66.30
SI 09:00:00 NR -10.05 65.98
SI 12:00:00 NR -10.11 65.66
SI 15:00:00 NR -10.16 65.34
SI 18:00:00 NR -10.20 65.00
SI 21:00:00 NR -10.23 64.63
SI 1899-12-12 00:00:00 NR -10.25 64.25
SI 03:00:00 NR -10.27 63.87
SI 06:00:00 NR -10.30 63.50
SI 09:00:00 NR -10.35 63.16
SI 12:00:00 NR -10.40 62.84
SI 15:00:00 NR -10.45 62.52
SI 18:00:00 NR -10.50 62.20
SI 21:00:00 NR -10.53 61.86
SI 1899-12-13 00:00:00 NR -10.55 61.51
SI 03:00:00 NR -10.57 61.16
SI 06:00:00 NR -10.60 60.80
SI 09:00:00 NR -10.64 60.44
SI 12:00:00 NR -10.69 60.07
SI 15:00:00 NR -10.75 59.69
SI 18:00:00 NR -10.80 59.30
SI 21:00:00 NR -10.85 58.93
SI 1899-12-14 00:00:00 NR -10.90 58.53
SI 03:00:00 NR -10.95 58.10
SI 06:00:00 NR -11.00 57.60
SI 09:00:00 NR -11.05 56.97
SI 12:00:00 NR -11.11 56.28
SI 15:00:00 NR -11.16 55.60
SI 18:00:00 NR -11.20 55.00
SI 21:00:00 NR -11.22 54.61
SI 1899-12-15 00:00:00 NR -11.23 54.29
SI 03:00:00 NR -11.26 53.98
SI 06:00:00 NR -11.30 53.60
SI 09:00:00 NR -11.38 53.05
SI 12:00:00 NR -11.49 52.43
SI 15:00:00 NR -11.60 51.77
SI 18:00:00 NR -11.70 51.10
SI 21:00:00 NR -11.79 50.45
SI 1899-12-16 00:00:00 NR -11.86 49.81
SI 03:00:00 NR -11.94 49.18
SI 06:00:00 NR -12.00 48.60
SI 09:00:00 NR -12.05 48.08
SI 12:00:00 NR -12.09 47.60
SI 15:00:00 NR -12.14 47.14
SI 18:00:00 NR -12.20 46.70
SI 21:00:00 NR -12.28 46.24
SI 1899-12-17 00:00:00 NR -12.37 45.78
SI 03:00:00 NR -12.48 45.34
SI 06:00:00 NR -12.60 44.90
SI 09:00:00 NR -12.72 44.46
SI 12:00:00 NR -12.85 44.03
SI 15:00:00 NR -13.01 43.61
SI 18:00:00 NR -13.20 43.20
SI 21:00:00 NR -13.42 42.78
SI 1899-12-18 00:00:00 NR -13.68 42.38
SI 03:00:00 NR -13.98 42.02
SI 06:00:00 NR -14.30 41.70
SI 09:00:00 NR -14.63 41.43
SI 12:00:00 NR -15.00 41.21
SI 15:00:00 NR -15.39 41.04
SI 18:00:00 NR -15.80 40.90
SI 21:00:00 NR -16.22 40.75
SI 1899-12-19 00:00:00 NR -16.67 40.65
SI 03:00:00 NR -17.13 40.59
SI 06:00:00 NR -17.60 40.60
SI 09:00:00 NR -18.09 40.67
SI 12:00:00 NR -18.59 40.80
SI 15:00:00 NR -19.06 40.98
SI 18:00:00 NR -19.50 41.20
SI 21:00:00 NR -19.86 41.40
SI 1899-12-20 00:00:00 NR -20.19 41.63
SI 03:00:00 NR -20.49 41.89
SI 06:00:00 NR -20.80 42.20
SI 09:00:00 NR -21.16 42.56
SI 12:00:00 NR -21.52 42.95
SI 15:00:00 NR -21.87 43.38
SI 18:00:00 NR -22.20 43.80
SI 21:00:00 NR -22.49 44.19
SI 1899-12-21 00:00:00 NR -22.76 44.58
SI 03:00:00 NR -23.02 44.98
SI 06:00:00 NR -23.30 45.40
SI 09:00:00 NR -23.61 45.85
SI 12:00:00 NR -23.94 46.33
SI 15:00:00 NR -24.27 46.81
SI 18:00:00 NR -24.60 47.30
SI 21:00:00 NR -24.91 47.77
SI 1899-12-22 00:00:00 NR -25.21 48.24
SI 03:00:00 NR -25.50 48.72
SI 06:00:00 NR -25.80 49.20
SI 09:00:00 NR -26.11 49.70
SI 12:00:00 NR -26.41 50.21
SI 15:00:00 NR -26.71 50.71
SI 18:00:00 NR -27.00 51.20
SI 21:00:00 NR -27.24 51.64
SI 1899-12-23 00:00:00 NR -27.48 52.07
SI 03:00:00 NR -27.72 52.51
SI 06:00:00 NR -28.00 53.00
SI 09:00:00 NR -28.35 53.55
SI 12:00:00 NR -28.73 54.15
SI 15:00:00 NR -29.12 54.80
SI 18:00:00 NR -29.50 55.50
SI 21:00:00 NR -29.86 56.25
SI 1899-12-24 00:00:00 NR -30.19 57.04
SI 03:00:00 NR -30.50 57.86
SI 06:00:00 NR -30.80 58.70

Source Information

Agency Information
USA
TOKYO
CMA
HKO
NEWDELHI
REUNION
BOM
NADI
WELLINGTON
DS824
TD9636 cons_worldwide_trop_cyclone_18710101-19891231-005:Line=2530
TD9635
NEUMANN
MLC

All available IBTrACS Data

SEASON BASIN SUBBASIN ISO_TIME_________ NATURE LAT LON DIST2LAND LANDFALL IFLAG USA SSHS TD9636 LAT TD9636 LON TD9636 STAGE STORM SPEED STORM DIR
Year degrees north degrees east km km 1 degrees north degrees east kts degrees
1900 SI MM 1899-12-10 18:00:00 NR -9.80 67.60 1567 1546 __________O___ -1 -9.80 67.60 7 7 261
1900 SI MM 21:00:00 NR -9.85 67.27 1546 1516 __________P___ -1 -9.85 67.27 7 7 261
1900 SI MM 1899-12-11 00:00:00 NR -9.90 66.95 1509 1488 __________P___ -1 -9.90 66.95 7 7 261
1900 SI MM 03:00:00 NR -9.95 66.62 1488 1459 __________P___ -1 -9.95 66.62 7 6 261
1900 SI MM 06:00:00 NR -10.00 66.30 1459 1430 __________O___ -1 -10.00 66.30 7 6 260
1900 SI MM 09:00:00 NR -10.05 65.98 1430 1410 __________P___ -1 -10.05 65.98 7 6 260
1900 SI MM 12:00:00 NR -10.11 65.66 1410 1381 __________P___ -1 -10.11 65.66 7 6 261
1900 SI MM 15:00:00 NR -10.16 65.34 1375 1356 __________P___ -1 -10.16 65.34 7 7 262
1900 SI MM 18:00:00 NR -10.20 65.00 1356 1338 __________O___ -1 -10.20 65.00 7 7 264
1900 SI MM 21:00:00 NR -10.23 64.63 1332 1314 __________P___ -1 -10.23 64.63 7 7 266
1900 SI MM 1899-12-12 00:00:00 NR -10.25 64.25 1299 1282 __________P___ -1 -10.25 64.25 7 8 267
1900 SI MM 03:00:00 NR -10.27 63.87 1282 1260 __________P___ -1 -10.27 63.87 7 7 266
1900 SI MM 06:00:00 NR -10.30 63.50 1260 1245 __________O___ -1 -10.30 63.50 7 7 264
1900 SI MM 09:00:00 NR -10.35 63.16 1245 1220 __________P___ -1 -10.35 63.16 7 7 261
1900 SI MM 12:00:00 NR -10.40 62.84 1215 1191 __________P___ -1 -10.40 62.84 7 6 260
1900 SI MM 15:00:00 NR -10.45 62.52 1191 1177 __________P___ -1 -10.45 62.52 7 6 261
1900 SI MM 18:00:00 NR -10.50 62.20 1177 1164 __________O___ -1 -10.50 62.20 7 7 263
1900 SI MM 21:00:00 NR -10.53 61.86 1164 1149 __________P___ -1 -10.53 61.86 7 7 266
1900 SI MM 1899-12-13 00:00:00 NR -10.55 61.51 1149 1127 __________P___ -1 -10.55 61.51 7 7 266
1900 SI MM 03:00:00 NR -10.57 61.16 1127 1113 __________P___ -1 -10.57 61.16 7 7 266
1900 SI MM 06:00:00 NR -10.60 60.80 1113 1104 __________O___ -1 -10.60 60.80 7 7 264
1900 SI MM 09:00:00 NR -10.64 60.44 1101 1083 __________P___ -1 -10.64 60.44 7 7 263
1900 SI MM 12:00:00 NR -10.69 60.07 1083 1073 __________P___ -1 -10.69 60.07 7 7 262
1900 SI MM 15:00:00 NR -10.75 59.69 1073 1052 __________P___ -1 -10.75 59.69 7 8 262
1900 SI MM 18:00:00 NR -10.80 59.30 1052 1010 __________O___ -1 -10.80 59.30 7 8 262
1900 SI MM 21:00:00 NR -10.85 58.93 1010 975 __________P___ -1 -10.85 58.93 7 8 262
1900 SI MM 1899-12-14 00:00:00 NR -10.90 58.53 965 923 __________P___ -1 -10.90 58.53 7 8 263
1900 SI MM 03:00:00 NR -10.95 58.10 923 867 __________P___ -1 -10.95 58.10 7 9 264
1900 SI MM 06:00:00 NR -11.00 57.60 867 801 __________O___ -1 -11.00 57.60 7 11 265
1900 SI MM 09:00:00 NR -11.05 56.97 801 728 __________P___ -1 -11.05 56.97 7 13 265
1900 SI MM 12:00:00 NR -11.11 56.28 728 652 __________P___ -1 -11.11 56.28 7 13 266
1900 SI MM 15:00:00 NR -11.16 55.60 652 590 __________P___ -1 -11.16 55.60 7 13 266
1900 SI MM 18:00:00 NR -11.20 55.00 590 549 __________O___ -1 -11.20 55.00 7 10 266
1900 SI MM 21:00:00 NR -11.22 54.61 549 519 __________P___ -1 -11.22 54.61 7 7 267
1900 SI MM 1899-12-15 00:00:00 NR -11.23 54.29 519 484 __________P___ -1 -11.23 54.29 7 6 267
1900 SI MM 03:00:00 NR -11.26 53.98 484 445 __________P___ -1 -11.26 53.98 7 7 264
1900 SI MM 06:00:00 NR -11.30 53.60 445 391 __________O___ -1 -11.30 53.60 7 9 262
1900 SI MM 09:00:00 NR -11.38 53.05 391 328 __________P___ -1 -11.38 53.05 7 12 261
1900 SI MM 12:00:00 NR -11.49 52.43 319 259 __________P___ -1 -11.49 52.43 7 13 260
1900 SI MM 15:00:00 NR -11.60 51.77 259 193 __________P___ -1 -11.60 51.77 7 13 261
1900 SI MM 18:00:00 NR -11.70 51.10 193 127 __________O___ -1 -11.70 51.10 7 13 262
1900 SI MM 21:00:00 NR -11.79 50.45 127 54 __________P___ -1 -11.79 50.45 7 13 263
1900 SI MM 1899-12-16 00:00:00 NR -11.86 49.81 54 22 __________P___ -1 -11.86 49.81 7 13 263
1900 SI MM 03:00:00 NR -11.94 49.18 22 22 __________P___ -1 -11.94 49.18 7 12 263
1900 SI MM 06:00:00 NR -12.00 48.60 54 54 __________O___ -1 -12.00 48.60 7 11 264
1900 SI MM 09:00:00 NR -12.05 48.08 94 94 __________P___ -1 -12.05 48.08 7 10 265
1900 SI MM 12:00:00 NR -12.09 47.60 137 137 __________P___ -1 -12.09 47.60 7 9 264
1900 SI MM 15:00:00 NR -12.14 47.14 190 190 __________P___ -1 -12.14 47.14 7 9 263
1900 SI MM 18:00:00 NR -12.20 46.70 210 210 __________O___ -1 -12.20 46.70 7 9 261
1900 SI MM 21:00:00 NR -12.28 46.24 241 241 __________P___ -1 -12.28 46.24 7 9 259
1900 SI MM 1899-12-17 00:00:00 NR -12.37 45.78 270 270 __________P___ -1 -12.37 45.78 7 9 257
1900 SI MM 03:00:00 NR -12.48 45.34 312 312 __________P___ -1 -12.48 45.34 7 9 255
1900 SI MM 06:00:00 NR -12.60 44.90 347 347 __________O___ -1 -12.60 44.90 7 9 254
1900 SI MM 09:00:00 NR -12.72 44.46 375 368 __________P___ -1 -12.72 44.46 7 9 254
1900 SI MM 12:00:00 NR -12.85 44.03 368 326 __________P___ -1 -12.85 44.03 7 9 251
1900 SI MM 15:00:00 NR -13.01 43.61 326 282 __________P___ -1 -13.01 43.61 7 9 246
1900 SI MM 18:00:00 NR -13.20 43.20 282 238 __________O___ -1 -13.20 43.20 7 9 243
1900 SI MM 21:00:00 NR -13.42 42.78 238 194 __________P___ -1 -13.42 42.78 7 9 239
1900 SI MM 1899-12-18 00:00:00 NR -13.68 42.38 194 140 __________P___ -1 -13.68 42.38 7 9 233
1900 SI MM 03:00:00 NR -13.98 42.02 140 99 __________P___ -1 -13.98 42.02 7 9 227
1900 SI MM 06:00:00 NR -14.30 41.70 99 64 __________O___ -1 -14.30 41.70 7 9 221
1900 SI MM 09:00:00 NR -14.63 41.43 64 42 __________P___ -1 -14.63 41.43 7 8 214
1900 SI MM 12:00:00 NR -15.00 41.21 42 34 __________P___ -1 -15.00 41.21 7 8 207
1900 SI MM 15:00:00 NR -15.39 41.04 42 42 __________P___ -1 -15.39 41.04 7 9 200
1900 SI MM 18:00:00 NR -15.80 40.90 54 48 __________O___ -1 -15.80 40.90 7 9 198
1900 SI MM 21:00:00 NR -16.22 40.75 69 61 __________P___ -1 -16.22 40.75 7 9 196
1900 SI MM 1899-12-19 00:00:00 NR -16.67 40.65 85 85 __________P___ -1 -16.67 40.65 7 9 190
1900 SI MM 03:00:00 NR -17.13 40.59 108 108 __________P___ -1 -17.13 40.59 7 9 183
1900 SI MM 06:00:00 NR -17.60 40.60 149 149 __________O___ -1 -17.60 40.60 7 10 175
1900 SI MM 09:00:00 NR -18.09 40.67 202 202 __________P___ -1 -18.09 40.67 7 10 169
1900 SI MM 12:00:00 NR -18.59 40.80 253 253 __________P___ -1 -18.59 40.80 7 10 163
1900 SI MM 15:00:00 NR -19.06 40.98 309 309 __________P___ -1 -19.06 40.98 7 10 158
1900 SI MM 18:00:00 NR -19.50 41.20 317 282 __________O___ -1 -19.50 41.20 7 9 154
1900 SI MM 21:00:00 NR -19.86 41.40 275 238 __________P___ -1 -19.86 41.40 7 8 150
1900 SI MM 1899-12-20 00:00:00 NR -20.19 41.63 238 194 __________P___ -1 -20.19 41.63 7 8 144
1900 SI MM 03:00:00 NR -20.49 41.89 194 150 __________P___ -1 -20.49 41.89 7 8 139
1900 SI MM 06:00:00 NR -20.80 42.20 150 108 __________O___ -1 -20.80 42.20 7 9 137
1900 SI MM 09:00:00 NR -21.16 42.56 95 61 __________P___ -1 -21.16 42.56 7 10 135
1900 SI MM 12:00:00 NR -21.52 42.95 51 0 __________P___ -1 -21.52 42.95 7 10 133
1900 SI MM 15:00:00 NR -21.87 43.38 0 0 __________P___ -1 -21.87 43.38 7 10 131
1900 SI MM 18:00:00 NR -22.20 43.80 0 0 __________O___ -1 -22.20 43.80 7 10 129
1900 SI MM 21:00:00 NR -22.49 44.19 0 0 __________P___ -1 -22.49 44.19 7 9 128
1900 SI MM 1899-12-21 00:00:00 NR -22.76 44.58 0 0 __________P___ -1 -22.76 44.58 7 9 126
1900 SI MM 03:00:00 NR -23.02 44.98 0 0 __________P___ -1 -23.02 44.98 7 9 126
1900 SI MM 06:00:00 NR -23.30 45.40 0 0 __________O___ -1 -23.30 45.40 7 10 126
1900 SI MM 09:00:00 NR -23.61 45.85 0 0 __________P___ -1 -23.61 45.85 7 11 127
1900 SI MM 12:00:00 NR -23.94 46.33 0 0 __________P___ -1 -23.94 46.33 7 11 127
1900 SI MM 15:00:00 NR -24.27 46.81 0 0 __________P___ -1 -24.27 46.81 7 11 127
1900 SI MM 18:00:00 NR -24.60 47.30 10 10 __________O___ -1 -24.60 47.30 7 11 126
1900 SI MM 21:00:00 NR -24.91 47.77 64 64 __________P___ -1 -24.91 47.77 7 11 125
1900 SI MM 1899-12-22 00:00:00 NR -25.21 48.24 112 112 __________P___ -1 -25.21 48.24 7 10 125
1900 SI MM 03:00:00 NR -25.50 48.72 170 170 __________P___ -1 -25.50 48.72 7 10 124
1900 SI MM 06:00:00 NR -25.80 49.20 228 228 __________O___ -1 -25.80 49.20 7 11 124
1900 SI MM 09:00:00 NR -26.11 49.70 288 288 __________P___ -1 -26.11 49.70 7 11 124
1900 SI MM 12:00:00 NR -26.41 50.21 347 347 __________P___ -1 -26.41 50.21 7 11 124
1900 SI MM 15:00:00 NR -26.71 50.71 406 406 __________P___ -1 -26.71 50.71 7 11 123
1900 SI MM 18:00:00 NR -27.00 51.20 466 466 __________O___ -1 -27.00 51.20 7 10 123
1900 SI MM 21:00:00 NR -27.24 51.64 511 511 __________P___ -1 -27.24 51.64 7 9 122
1900 SI MM 1899-12-23 00:00:00 NR -27.48 52.07 571 571 __________P___ -1 -27.48 52.07 7 9 122
1900 SI MM 03:00:00 NR -27.72 52.51 616 616 __________P___ -1 -27.72 52.51 7 10 122
1900 SI MM 06:00:00 NR -28.00 53.00 675 675 __________O___ -1 -28.00 53.00 7 11 124
1900 SI MM 09:00:00 NR -28.35 53.55 734 734 __________P___ -1 -28.35 53.55 7 12 126
1900 SI MM 12:00:00 NR -28.73 54.15 807 807 __________P___ -1 -28.73 54.15 7 13 125
1900 SI MM 15:00:00 NR -29.12 54.80 864 864 __________P___ -1 -29.12 54.80 7 14 123
1900 SI MM 18:00:00 NR -29.50 55.50 904 904 __________O___ -1 -29.50 55.50 7 15 120
1900 SI MM 21:00:00 NR -29.86 56.25 952 952 __________P___ -1 -29.86 56.25 7 15 117
1900 SI MM 1899-12-24 00:00:00 NR -30.19 57.04 992 992 __________P___ -1 -30.19 57.04 7 15 115
1900 SI MM 03:00:00 NR -30.50 57.86 1042 1042 __________P___ -1 -30.50 57.86 7 16 113
1900 SI MM 06:00:00 NR -30.80 58.70 1094 __________O___ -1 -30.80 58.70 7 16 113